createdAt,value
2019-06-26T00:00:30.352Z,21.64
2019-06-26T00:01:30.398Z,21.62
2019-06-26T00:02:30.445Z,21.64
2019-06-26T00:03:30.492Z,21.59
2019-06-26T00:04:30.543Z,21.59
2019-06-26T00:05:30.581Z,21.64
2019-06-26T00:06:30.627Z,21.54
2019-06-26T00:07:30.689Z,21.59
2019-06-26T00:08:30.722Z,21.65
2019-06-26T00:09:30.768Z,21.64
2019-06-26T00:10:30.812Z,21.56
2019-06-26T00:11:30.914Z,21.59
2019-06-26T00:12:30.920Z,21.56
2019-06-26T00:13:30.952Z,21.53
2019-06-26T00:14:30.998Z,21.58
2019-06-26T00:15:31.044Z,21.46
2019-06-26T00:16:31.100Z,21.47
2019-06-26T00:17:31.136Z,21.53
2019-06-26T00:18:31.189Z,21.56
2019-06-26T00:19:31.237Z,21.46
2019-06-26T00:20:31.274Z,21.47
2019-06-26T00:21:31.320Z,21.52
2019-06-26T00:22:31.387Z,21.52
2019-06-26T00:23:31.426Z,21.50
2019-06-26T00:24:31.498Z,21.52
2019-06-26T00:25:31.505Z,21.50
2019-06-26T00:26:31.551Z,21.40
2019-06-26T00:27:31.597Z,21.43
2019-06-26T00:28:31.647Z,21.35
2019-06-26T00:29:31.735Z,21.38
2019-06-26T00:30:31.735Z,21.28
2019-06-26T00:31:31.782Z,21.32
2019-06-26T00:32:31.840Z,21.34
2019-06-26T00:33:31.876Z,21.34
2019-06-26T00:34:31.928Z,21.28
2019-06-26T00:35:31.984Z,21.31
2019-06-26T00:36:32.013Z,21.34
2019-06-26T00:37:32.059Z,21.31
2019-06-26T00:38:32.116Z,21.32
2019-06-26T00:39:32.167Z,21.31
2019-06-26T00:40:32.197Z,21.37
2019-06-26T00:41:32.245Z,21.29
2019-06-26T00:42:32.319Z,21.28
2019-06-26T00:43:41.976Z,21.19
2019-06-26T00:44:32.399Z,21.25
2019-06-26T00:45:32.428Z,21.13
2019-06-26T00:46:32.573Z,21.16
2019-06-26T00:47:32.525Z,21.09
2019-06-26T00:48:32.571Z,21.10
2019-06-26T00:49:32.614Z,21.14
2019-06-26T00:50:32.658Z,21.12
2019-06-26T00:51:32.708Z,21.13
2019-06-26T00:52:32.759Z,21.12
2019-06-26T00:53:32.798Z,21.10
2019-06-26T00:54:32.841Z,20.99
2019-06-26T00:55:32.896Z,21.09
2019-06-26T00:56:32.933Z,21.03
2019-06-26T00:57:32.990Z,21.04
2019-06-26T00:58:33.041Z,21.03
2019-06-26T00:59:33.071Z,21.06
2019-06-26T01:00:33.121Z,20.94
2019-06-26T01:01:33.164Z,20.94
2019-06-26T01:02:33.234Z,20.92
2019-06-26T01:03:33.257Z,20.94
2019-06-26T01:04:33.303Z,21.01
2019-06-26T01:05:33.358Z,20.92
2019-06-26T01:06:33.394Z,20.89
2019-06-26T01:07:33.448Z,20.98
2019-06-26T01:08:33.506Z,20.98
2019-06-26T01:09:33.545Z,20.99
2019-06-26T01:10:33.576Z,20.94
2019-06-26T01:11:33.624Z,20.89
2019-06-26T01:12:33.670Z,20.97
2019-06-26T01:13:33.729Z,20.99
2019-06-26T01:14:33.768Z,20.97
2019-06-26T01:15:33.810Z,20.85
2019-06-26T01:16:33.856Z,20.87
2019-06-26T01:17:33.900Z,20.87
2019-06-26T01:18:33.948Z,20.85
2019-06-26T01:19:33.994Z,20.84
2019-06-26T01:20:34.039Z,20.85
2019-06-26T01:21:34.081Z,20.88
2019-06-26T01:22:34.132Z,20.84
2019-06-26T01:23:34.230Z,20.87
2019-06-26T01:24:34.223Z,20.80
2019-06-26T01:25:34.266Z,20.72
2019-06-26T01:26:34.313Z,20.67
2019-06-26T01:27:34.359Z,20.73
2019-06-26T01:28:34.407Z,20.69
2019-06-26T01:29:34.453Z,20.67
2019-06-26T01:30:34.548Z,20.69
2019-06-26T01:31:34.544Z,20.72
2019-06-26T01:32:34.598Z,20.64
2019-06-26T01:33:34.642Z,20.69
2019-06-26T01:34:34.684Z,20.62
2019-06-26T01:35:34.729Z,20.70
2019-06-26T01:36:34.776Z,20.67
2019-06-26T01:37:34.820Z,20.72
2019-06-26T01:38:34.866Z,20.62
2019-06-26T01:39:34.916Z,20.64
2019-06-26T01:40:34.964Z,20.62
2019-06-26T01:41:35.023Z,20.66
2019-06-26T01:42:35.047Z,20.64
2019-06-26T01:43:35.111Z,20.62
2019-06-26T01:44:35.139Z,20.50
2019-06-26T01:45:35.186Z,20.61
2019-06-26T01:46:35.230Z,20.51
2019-06-26T01:47:35.279Z,20.58
2019-06-26T01:48:35.323Z,20.59
2019-06-26T01:49:35.367Z,20.62
2019-06-26T01:50:35.425Z,20.59
2019-06-26T01:51:35.465Z,20.62
2019-06-26T01:52:35.508Z,20.57
2019-06-26T01:53:35.582Z,20.58
2019-06-26T01:54:35.598Z,20.54
2019-06-26T01:55:35.645Z,20.54
2019-06-26T01:56:35.690Z,20.50
2019-06-26T01:57:35.732Z,20.43
2019-06-26T01:58:35.809Z,20.47
2019-06-26T01:59:35.827Z,20.35
2019-06-26T02:00:35.873Z,20.26
2019-06-26T02:01:35.919Z,20.26
2019-06-26T02:02:35.966Z,20.28
2019-06-26T02:03:36.017Z,20.28
2019-06-26T02:04:36.058Z,20.16
2019-06-26T02:05:36.100Z,20.17
2019-06-26T02:06:36.149Z,20.11
2019-06-26T02:07:36.196Z,20.11
2019-06-26T02:08:36.246Z,20.18
2019-06-26T02:09:36.318Z,20.03
2019-06-26T02:10:36.331Z,20.10
2019-06-26T02:11:36.380Z,20.01
2019-06-26T02:12:36.470Z,20.17
2019-06-26T02:13:36.467Z,20.13
2019-06-26T02:14:36.516Z,20.17
2019-06-26T02:15:36.564Z,20.16
2019-06-26T02:16:36.603Z,20.11
2019-06-26T02:17:36.701Z,20.14
2019-06-26T02:18:36.696Z,20.17
2019-06-26T02:19:36.745Z,20.05
2019-06-26T02:20:36.796Z,20.18
2019-06-26T02:21:36.835Z,20.02
2019-06-26T02:22:36.879Z,20.03
2019-06-26T02:23:36.936Z,20.03
2019-06-26T02:24:36.971Z,19.99
2019-06-26T02:25:37.019Z,20.10
2019-06-26T02:26:37.066Z,20.05
2019-06-26T02:27:37.110Z,19.96
2019-06-26T02:28:37.158Z,19.87
2019-06-26T02:29:37.199Z,19.94
2019-06-26T02:30:37.267Z,19.87
2019-06-26T02:31:37.290Z,19.84
2019-06-26T02:32:37.339Z,19.83
2019-06-26T02:33:37.386Z,19.80
2019-06-26T02:34:37.428Z,19.83
2019-06-26T02:35:37.475Z,19.86
2019-06-26T02:36:37.524Z,19.83
2019-06-26T02:37:37.566Z,19.83
2019-06-26T02:38:37.613Z,19.71
2019-06-26T02:39:37.657Z,19.81
2019-06-26T02:40:37.704Z,19.80
2019-06-26T02:41:37.762Z,19.78
2019-06-26T02:42:37.801Z,19.84
2019-06-26T02:43:37.869Z,19.83
2019-06-26T02:44:52.111Z,19.86
2019-06-26T02:45:37.929Z,19.80
2019-06-26T02:46:37.978Z,19.73
2019-06-26T02:47:38.097Z,19.78
2019-06-26T02:48:38.068Z,19.81
2019-06-26T02:49:38.113Z,19.80
2019-06-26T02:50:38.160Z,19.78
2019-06-26T02:51:38.205Z,19.71
2019-06-26T02:52:38.256Z,19.81
2019-06-26T02:53:38.295Z,19.68
2019-06-26T02:54:38.348Z,19.73
2019-06-26T02:55:38.390Z,19.78
2019-06-26T02:56:38.434Z,19.81
2019-06-26T02:57:38.477Z,19.74
2019-06-26T02:58:38.524Z,19.84
2019-06-26T02:59:38.572Z,19.83
2019-06-26T03:00:38.617Z,19.78
2019-06-26T03:01:38.671Z,19.78
2019-06-26T03:02:38.707Z,19.78
2019-06-26T03:03:38.760Z,19.73
2019-06-26T03:04:38.797Z,19.80
2019-06-26T03:05:38.842Z,19.78
2019-06-26T03:06:38.898Z,19.81
2019-06-26T03:07:38.934Z,19.73
2019-06-26T03:08:38.984Z,19.71
2019-06-26T03:09:39.048Z,19.78
2019-06-26T03:10:39.069Z,19.69
2019-06-26T03:11:39.115Z,19.84
2019-06-26T03:12:39.162Z,19.81
2019-06-26T03:13:39.207Z,19.74
2019-06-26T03:14:39.252Z,19.73
2019-06-26T03:15:39.297Z,19.73
2019-06-26T03:16:39.346Z,19.77
2019-06-26T03:17:54.151Z,19.74
2019-06-26T03:18:39.436Z,19.78
2019-06-26T03:19:39.480Z,19.84
2019-06-26T03:20:39.528Z,19.88
2019-06-26T03:21:39.622Z,19.88
2019-06-26T03:22:39.620Z,19.92
2019-06-26T03:23:39.672Z,19.91
2019-06-26T03:24:39.712Z,19.92
2019-06-26T03:25:39.755Z,19.94
2019-06-26T03:26:39.815Z,20.01
2019-06-26T03:27:39.846Z,20.03
2019-06-26T03:28:39.895Z,19.99
2019-06-26T03:29:39.937Z,19.99
2019-06-26T03:30:39.983Z,20.01
2019-06-26T03:31:40.028Z,20.08
2019-06-26T03:32:40.078Z,20.08
2019-06-26T03:33:40.120Z,20.08
2019-06-26T03:34:40.194Z,20.14
2019-06-26T03:35:40.987Z,20.13
2019-06-26T03:36:40.259Z,20.11
2019-06-26T03:37:40.302Z,20.16
2019-06-26T03:38:40.446Z,20.11
2019-06-26T03:39:40.392Z,20.17
2019-06-26T03:40:40.437Z,20.13
2019-06-26T03:41:40.481Z,20.13
2019-06-26T03:42:40.527Z,20.11
2019-06-26T03:43:40.574Z,20.11
2019-06-26T03:44:40.629Z,20.16
2019-06-26T03:45:40.665Z,20.24
2019-06-26T03:46:40.723Z,20.13
2019-06-26T03:47:40.770Z,20.21
2019-06-26T03:48:40.801Z,20.29
2019-06-26T03:49:40.848Z,20.26
2019-06-26T03:50:40.894Z,20.24
2019-06-26T03:51:40.937Z,20.35
2019-06-26T03:52:41.034Z,20.35
2019-06-26T03:53:41.035Z,20.36
2019-06-26T03:54:41.076Z,20.36
2019-06-26T03:55:41.123Z,20.33
2019-06-26T03:56:41.170Z,20.35
2019-06-26T03:57:41.213Z,20.39
2019-06-26T03:58:41.269Z,20.47
2019-06-26T03:59:41.304Z,20.43
2019-06-26T04:00:41.354Z,20.54
2019-06-26T04:01:41.402Z,20.58
2019-06-26T04:02:41.439Z,20.58
2019-06-26T04:03:41.485Z,20.67
2019-06-26T04:04:41.531Z,20.57
2019-06-26T04:05:41.579Z,20.61
2019-06-26T04:06:41.793Z,20.67
2019-06-26T04:07:41.674Z,20.69
2019-06-26T04:08:41.816Z,20.67
2019-06-26T04:09:41.802Z,20.69
2019-06-26T04:10:43.377Z,20.77
2019-06-26T04:11:41.869Z,20.87
2019-06-26T04:12:41.913Z,20.88
2019-06-26T04:13:41.948Z,20.92
2019-06-26T04:14:41.998Z,20.95
2019-06-26T04:15:43.035Z,21.01
2019-06-26T04:16:42.082Z,21.04
2019-06-26T04:17:42.128Z,21.01
2019-06-26T04:18:42.176Z,21.10
2019-06-26T04:19:42.228Z,21.10
2019-06-26T04:20:42.266Z,21.13
2019-06-26T04:21:42.313Z,21.12
2019-06-26T04:22:42.363Z,21.21
2019-06-26T04:23:42.403Z,21.25
2019-06-26T04:24:42.451Z,21.31
2019-06-26T04:25:42.558Z,21.34
2019-06-26T04:26:42.547Z,21.27
2019-06-26T04:27:42.588Z,21.35
2019-06-26T04:28:42.632Z,21.32
2019-06-26T04:29:42.678Z,21.37
2019-06-26T04:30:42.726Z,21.37
2019-06-26T04:31:42.771Z,21.38
2019-06-26T04:32:42.817Z,21.35
2019-06-26T04:33:42.866Z,21.40
2019-06-26T04:34:42.906Z,21.42
2019-06-26T04:35:42.954Z,21.44
2019-06-26T04:36:43.000Z,21.54
2019-06-26T04:37:43.044Z,21.54
2019-06-26T04:38:43.095Z,21.56
2019-06-26T04:39:43.138Z,21.59
2019-06-26T04:40:43.184Z,21.59
2019-06-26T04:41:43.229Z,21.61
2019-06-26T04:42:43.284Z,21.67
2019-06-26T04:43:43.321Z,21.67
2019-06-26T04:44:43.370Z,21.64
2019-06-26T04:45:57.116Z,21.68
2019-06-26T04:46:43.465Z,21.77
2019-06-26T04:47:43.507Z,21.86
2019-06-26T04:48:43.553Z,21.88
2019-06-26T04:49:43.596Z,21.83
2019-06-26T04:50:43.645Z,21.94
2019-06-26T04:51:43.690Z,21.91
2019-06-26T04:52:43.736Z,21.92
2019-06-26T04:53:43.784Z,21.88
2019-06-26T04:54:43.827Z,21.94
2019-06-26T04:55:43.882Z,22.03
2019-06-26T04:56:43.933Z,22.05
2019-06-26T04:57:43.964Z,21.99
2019-06-26T04:58:44.025Z,22.18
2019-06-26T04:59:44.069Z,22.22
2019-06-26T05:00:44.107Z,22.27
2019-06-26T05:01:44.161Z,22.21
2019-06-26T05:02:44.198Z,22.28
2019-06-26T05:03:44.243Z,22.37
2019-06-26T05:04:44.290Z,22.39
2019-06-26T05:05:44.620Z,22.47
2019-06-26T05:06:44.441Z,22.45
2019-06-26T05:07:44.440Z,22.47
2019-06-26T05:08:44.489Z,22.67
2019-06-26T05:09:44.522Z,22.70
2019-06-26T05:10:44.571Z,22.68
2019-06-26T05:11:44.616Z,22.73
2019-06-26T05:12:44.667Z,22.73
2019-06-26T05:13:44.710Z,22.80
2019-06-26T05:14:44.754Z,22.95
2019-06-26T05:15:44.801Z,23.22
2019-06-26T05:16:44.848Z,23.42
2019-06-26T05:17:44.895Z,23.76
2019-06-26T05:18:44.942Z,23.91
2019-06-26T05:19:44.987Z,24.12
2019-06-26T05:20:45.042Z,24.05
2019-06-26T05:21:45.081Z,23.72
2019-06-26T05:22:45.125Z,23.76
2019-06-26T05:23:45.178Z,23.73
2019-06-26T05:24:46.544Z,23.83
2019-06-26T05:25:45.264Z,23.93
2019-06-26T05:26:45.313Z,24.13
2019-06-26T05:27:45.361Z,24.20
2019-06-26T05:28:45.410Z,24.22
2019-06-26T05:29:45.451Z,24.25
2019-06-26T05:30:45.501Z,24.15
2019-06-26T05:31:45.547Z,24.02
2019-06-26T05:32:45.872Z,24.10
2019-06-26T05:33:45.647Z,24.10
2019-06-26T05:34:45.753Z,24.05
2019-06-26T05:35:45.736Z,24.02
2019-06-26T05:36:45.787Z,23.95
2019-06-26T05:37:45.840Z,23.97
2019-06-26T05:38:45.879Z,23.95
2019-06-26T05:39:45.925Z,24.00
2019-06-26T05:40:45.975Z,23.95
2019-06-26T05:41:46.017Z,24.00
2019-06-26T05:42:46.064Z,24.13
2019-06-26T05:43:46.120Z,24.10
2019-06-26T05:44:46.160Z,24.13
2019-06-26T05:45:46.205Z,24.22
2019-06-26T05:46:46.252Z,24.20
2019-06-26T05:47:46.307Z,24.25
2019-06-26T05:48:46.352Z,24.24
2019-06-26T05:49:46.395Z,24.34
2019-06-26T05:50:46.445Z,24.39
2019-06-26T05:51:46.489Z,24.34
2019-06-26T05:52:46.542Z,24.42
2019-06-26T05:53:46.589Z,24.46
2019-06-26T05:54:46.645Z,24.47
2019-06-26T05:55:46.685Z,24.52
2019-06-26T05:56:46.726Z,24.57
2019-06-26T05:57:48.575Z,24.64
2019-06-26T05:58:46.920Z,24.58
2019-06-26T05:59:46.871Z,24.69
2019-06-26T06:00:46.915Z,24.76
2019-06-26T06:01:46.967Z,24.80
2019-06-26T06:02:47.025Z,24.83
2019-06-26T06:03:47.059Z,24.84
2019-06-26T06:04:47.132Z,24.87
2019-06-26T06:05:47.163Z,24.99
2019-06-26T06:06:47.199Z,24.96
2019-06-26T06:07:47.247Z,25.09
2019-06-26T06:08:47.294Z,25.05
2019-06-26T06:09:47.341Z,25.06
2019-06-26T06:10:47.396Z,25.18
2019-06-26T06:11:47.469Z,25.09
2019-06-26T06:12:47.481Z,25.21
2019-06-26T06:13:47.535Z,25.28
2019-06-26T06:14:47.578Z,25.24
2019-06-26T06:15:47.625Z,25.32
2019-06-26T06:16:48.159Z,25.35
2019-06-26T06:17:47.720Z,25.33
2019-06-26T06:18:47.768Z,25.40
2019-06-26T06:19:47.815Z,25.40
2019-06-26T06:20:47.958Z,25.43
2019-06-26T06:21:47.915Z,25.47
2019-06-26T06:22:47.958Z,25.52
2019-06-26T06:23:48.006Z,25.51
2019-06-26T06:24:48.112Z,25.52
2019-06-26T06:25:48.100Z,25.57
2019-06-26T06:26:48.148Z,25.64
2019-06-26T06:27:48.199Z,25.67
2019-06-26T06:28:48.245Z,25.70
2019-06-26T06:29:48.291Z,25.83
2019-06-26T06:30:48.417Z,25.94
2019-06-26T06:31:48.387Z,25.97
2019-06-26T06:32:48.456Z,25.99
2019-06-26T06:33:48.484Z,26.05
2019-06-26T06:34:48.528Z,26.06
2019-06-26T06:35:48.579Z,26.23
2019-06-26T06:36:48.637Z,26.28
2019-06-26T06:37:48.672Z,26.33
2019-06-26T06:38:48.720Z,26.35
2019-06-26T06:39:48.769Z,26.43
2019-06-26T06:40:48.819Z,26.45
2019-06-26T06:41:48.874Z,26.50
2019-06-26T06:42:48.918Z,26.57
2019-06-26T06:43:48.977Z,26.51
2019-06-26T06:44:49.014Z,26.57
2019-06-26T06:45:49.060Z,26.67
2019-06-26T06:47:02.792Z,26.62
2019-06-26T06:47:49.151Z,26.67
2019-06-26T06:48:49.229Z,26.67
2019-06-26T06:49:49.248Z,26.69
2019-06-26T06:50:49.296Z,26.67
2019-06-26T06:51:49.350Z,26.73
2019-06-26T06:52:49.415Z,26.77
2019-06-26T06:53:49.448Z,26.76
2019-06-26T06:54:49.663Z,26.87
2019-06-26T06:55:49.551Z,26.97
2019-06-26T06:56:49.589Z,27.00
2019-06-26T06:57:49.635Z,27.09
2019-06-26T06:58:49.732Z,27.06
2019-06-26T06:59:49.729Z,27.07
2019-06-26T07:00:49.787Z,27.14
2019-06-26T07:01:49.826Z,27.13
2019-06-26T07:02:49.875Z,27.18
2019-06-26T07:03:49.929Z,27.22
2019-06-26T07:04:49.973Z,27.21
2019-06-26T07:05:50.017Z,27.32
2019-06-26T07:06:50.066Z,27.44
2019-06-26T07:07:50.119Z,27.41
2019-06-26T07:08:50.164Z,27.47
2019-06-26T07:09:50.209Z,27.51
2019-06-26T07:10:50.263Z,27.57
2019-06-26T07:11:50.310Z,27.59
2019-06-26T07:12:50.355Z,27.55
2019-06-26T07:13:50.418Z,27.77
2019-06-26T07:14:50.553Z,27.77
2019-06-26T07:15:50.519Z,27.82
2019-06-26T07:16:50.550Z,27.85
2019-06-26T07:17:50.598Z,27.87
2019-06-26T07:18:50.647Z,27.94
2019-06-26T07:19:50.695Z,27.94
2019-06-26T07:20:50.747Z,27.90
2019-06-26T07:21:50.794Z,28.04
2019-06-26T07:22:50.846Z,28.07
2019-06-26T07:23:50.904Z,28.15
2019-06-26T07:24:50.945Z,28.18
2019-06-26T07:25:50.988Z,28.21
2019-06-26T07:26:51.037Z,28.24
2019-06-26T07:27:51.097Z,28.36
2019-06-26T07:28:51.138Z,28.39
2019-06-26T07:29:51.179Z,28.31
2019-06-26T07:30:51.229Z,28.41
2019-06-26T07:31:51.277Z,28.52
2019-06-26T07:32:51.326Z,28.52
2019-06-26T07:33:51.390Z,28.54
2019-06-26T07:34:51.427Z,28.62
2019-06-26T07:35:51.474Z,28.59
2019-06-26T07:36:51.524Z,28.74
2019-06-26T07:37:51.572Z,28.73
2019-06-26T07:38:51.621Z,28.76
2019-06-26T07:39:51.673Z,28.73
2019-06-26T07:40:51.728Z,28.73
2019-06-26T07:41:51.763Z,28.76
2019-06-26T07:42:51.867Z,28.80
2019-06-26T07:43:51.861Z,28.83
2019-06-26T07:44:51.913Z,28.85
2019-06-26T07:45:51.961Z,28.98
2019-06-26T07:46:52.100Z,28.96
2019-06-26T07:47:52.057Z,28.96
2019-06-26T07:48:52.106Z,29.15
2019-06-26T07:49:52.164Z,29.16
2019-06-26T07:50:52.204Z,29.19
2019-06-26T07:51:52.253Z,29.26
2019-06-26T07:52:52.302Z,29.24
2019-06-26T07:53:52.351Z,29.31
2019-06-26T07:54:52.407Z,29.34
2019-06-26T07:55:52.505Z,29.28
2019-06-26T07:56:52.501Z,29.41
2019-06-26T07:57:52.546Z,29.45
2019-06-26T07:58:52.598Z,29.51
2019-06-26T07:59:52.644Z,29.51
2019-06-26T08:00:52.696Z,29.61
2019-06-26T08:01:52.747Z,29.58
2019-06-26T08:02:52.862Z,29.64
2019-06-26T08:03:52.842Z,29.65
2019-06-26T08:04:52.891Z,29.71
2019-06-26T08:05:52.939Z,29.70
2019-06-26T08:06:53.027Z,29.67
2019-06-26T08:07:53.051Z,29.67
2019-06-26T08:08:53.089Z,29.76
2019-06-26T08:09:53.139Z,29.78
2019-06-26T08:10:53.187Z,29.76
2019-06-26T08:11:53.239Z,29.80
2019-06-26T08:12:53.283Z,29.85
2019-06-26T08:13:53.403Z,29.92
2019-06-26T08:14:53.382Z,29.85
2019-06-26T08:15:53.433Z,29.92
2019-06-26T08:16:53.480Z,29.89
2019-06-26T08:18:00.490Z,29.86
2019-06-26T08:18:53.577Z,29.97
2019-06-26T08:19:53.637Z,30.00
2019-06-26T08:21:10.988Z,30.08
2019-06-26T08:21:53.750Z,30.01
2019-06-26T08:22:53.775Z,30.04
2019-06-26T08:23:53.924Z,30.10
2019-06-26T08:24:53.878Z,30.08
2019-06-26T08:25:53.927Z,30.13
2019-06-26T08:26:53.983Z,30.20
2019-06-26T08:27:54.026Z,30.13
2019-06-26T08:28:54.071Z,30.16
2019-06-26T08:29:54.119Z,30.22
2019-06-26T08:30:54.178Z,30.27
2019-06-26T08:31:54.223Z,30.37
2019-06-26T08:32:54.272Z,30.43
2019-06-26T08:33:54.320Z,30.39
2019-06-26T08:34:54.367Z,30.42
2019-06-26T08:35:54.422Z,30.51
2019-06-26T08:36:54.483Z,30.57
2019-06-26T08:38:08.908Z,30.58
2019-06-26T08:38:54.564Z,30.61
2019-06-26T08:39:54.612Z,30.67
2019-06-26T08:40:54.669Z,30.69
2019-06-26T08:41:54.712Z,30.67
2019-06-26T08:42:54.761Z,30.70
2019-06-26T08:43:54.812Z,30.67
2019-06-26T08:44:54.862Z,30.70
2019-06-26T08:45:54.909Z,30.88
2019-06-26T08:46:54.968Z,30.76
2019-06-26T08:47:55.008Z,30.88
2019-06-26T08:48:55.066Z,30.88
2019-06-26T08:49:55.175Z,30.86
2019-06-26T08:50:55.158Z,30.89
2019-06-26T08:51:55.212Z,30.99
2019-06-26T08:52:55.255Z,30.95
2019-06-26T08:53:55.305Z,31.07
2019-06-26T08:54:55.366Z,31.04
2019-06-26T08:55:55.407Z,31.06
2019-06-26T08:56:55.457Z,31.12
2019-06-26T08:57:55.509Z,31.21
2019-06-26T08:58:55.554Z,31.23
2019-06-26T08:59:55.603Z,31.41
2019-06-26T09:00:55.713Z,31.36
2019-06-26T09:01:55.706Z,31.35
2019-06-26T09:02:55.751Z,31.54
2019-06-26T09:03:55.803Z,31.51
2019-06-26T09:04:55.886Z,31.53
2019-06-26T09:05:55.903Z,31.54
2019-06-26T09:06:55.950Z,31.62
2019-06-26T09:07:56.077Z,31.62
2019-06-26T09:08:56.062Z,31.63
2019-06-26T09:09:56.118Z,31.69
2019-06-26T09:10:56.197Z,31.73
2019-06-26T09:11:56.199Z,31.66
2019-06-26T09:12:56.285Z,31.63
2019-06-26T09:13:56.321Z,31.85
2019-06-26T09:14:56.402Z,31.80
2019-06-26T09:15:56.398Z,31.81
2019-06-26T09:16:56.452Z,31.88
2019-06-26T09:17:56.501Z,31.86
2019-06-26T09:18:56.670Z,31.88
2019-06-26T09:19:56.617Z,31.99
2019-06-26T09:20:56.650Z,32.04
2019-06-26T09:21:56.705Z,31.95
2019-06-26T09:22:57.086Z,32.03
2019-06-26T09:23:56.801Z,31.96
2019-06-26T09:24:56.855Z,32.06
2019-06-26T09:25:56.898Z,32.03
2019-06-26T09:26:56.954Z,32.19
2019-06-26T09:27:56.996Z,32.23
2019-06-26T09:28:57.045Z,32.35
2019-06-26T09:29:57.100Z,32.28
2019-06-26T09:30:57.154Z,32.28
2019-06-26T09:31:57.196Z,32.26
2019-06-26T09:32:57.248Z,32.38
2019-06-26T09:33:57.328Z,32.35
2019-06-26T09:34:57.347Z,32.40
2019-06-26T09:35:57.406Z,32.33
2019-06-26T09:36:57.451Z,32.38
2019-06-26T09:37:57.496Z,32.26
2019-06-26T09:38:58.101Z,32.41
2019-06-26T09:39:57.606Z,32.37
2019-06-26T09:40:57.646Z,32.38
2019-06-26T09:41:57.697Z,32.45
2019-06-26T09:42:57.753Z,32.41
2019-06-26T09:43:57.816Z,32.40
2019-06-26T09:44:57.850Z,32.44
2019-06-26T09:45:57.899Z,32.44
2019-06-26T09:46:57.949Z,32.59
2019-06-26T09:47:58.000Z,32.59
2019-06-26T09:48:58.045Z,32.60
2019-06-26T09:49:58.096Z,32.62
2019-06-26T09:50:58.210Z,32.63
2019-06-26T09:51:58.204Z,32.63
2019-06-26T09:52:58.247Z,32.63
2019-06-26T09:53:58.298Z,32.62
2019-06-26T09:54:58.350Z,32.59
2019-06-26T09:55:58.408Z,32.60
2019-06-26T09:56:58.451Z,32.63
2019-06-26T09:57:58.504Z,32.69
2019-06-26T09:58:58.588Z,32.74
2019-06-26T09:59:58.598Z,32.84
2019-06-26T10:00:58.655Z,32.89
2019-06-26T10:01:58.700Z,32.87
2019-06-26T10:02:58.751Z,32.84
2019-06-26T10:03:58.808Z,32.87
2019-06-26T10:04:58.858Z,32.84
2019-06-26T10:05:58.899Z,32.84
2019-06-26T10:06:58.947Z,32.81
2019-06-26T10:07:58.999Z,32.81
2019-06-26T10:08:59.049Z,32.89
2019-06-26T10:09:59.107Z,32.96
2019-06-26T10:10:59.152Z,32.96
2019-06-26T10:11:59.209Z,32.92
2019-06-26T10:12:59.248Z,33.06
2019-06-26T10:13:59.309Z,33.01
2019-06-26T10:14:59.348Z,33.03
2019-06-26T10:16:00.566Z,33.04
2019-06-26T10:16:59.480Z,33.11
2019-06-26T10:17:59.499Z,33.07
2019-06-26T10:19:09.554Z,33.11
2019-06-26T10:19:59.605Z,33.09
2019-06-26T10:20:59.708Z,33.09
2019-06-26T10:21:59.710Z,33.11
2019-06-26T10:22:59.748Z,33.14
2019-06-26T10:23:59.801Z,33.18
2019-06-26T10:24:59.863Z,33.21
2019-06-26T10:25:59.905Z,33.18
2019-06-26T10:26:59.950Z,33.29
2019-06-26T10:28:00.000Z,33.28
2019-06-26T10:29:00.060Z,33.31
2019-06-26T10:30:00.149Z,33.32
2019-06-26T10:31:00.155Z,33.29
2019-06-26T10:32:00.407Z,33.37
2019-06-26T10:33:00.252Z,33.29
2019-06-26T10:34:00.303Z,33.31
2019-06-26T10:35:00.354Z,33.35
2019-06-26T10:36:00.403Z,33.44
2019-06-26T10:37:00.459Z,33.45
2019-06-26T10:38:00.511Z,33.41
2019-06-26T10:39:00.571Z,33.45
2019-06-26T10:40:00.652Z,33.57
2019-06-26T10:41:00.654Z,33.68
2019-06-26T10:42:00.703Z,33.66
2019-06-26T10:43:00.756Z,33.53
2019-06-26T10:44:00.805Z,33.59
2019-06-26T10:45:00.864Z,33.54
2019-06-26T10:46:00.913Z,33.56
2019-06-26T10:47:00.984Z,33.63
2019-06-26T10:48:01.017Z,33.69
2019-06-26T10:49:01.057Z,33.61
2019-06-26T10:50:01.117Z,33.61
2019-06-26T10:51:01.173Z,33.69
2019-06-26T10:52:01.224Z,33.68
2019-06-26T10:53:01.263Z,33.73
2019-06-26T10:54:01.310Z,33.65
2019-06-26T10:55:01.371Z,33.65
2019-06-26T10:56:01.411Z,33.76
2019-06-26T10:57:01.464Z,33.72
2019-06-26T10:58:01.511Z,33.88
2019-06-26T10:59:01.559Z,33.91
2019-06-26T11:00:01.652Z,33.90
2019-06-26T11:01:01.659Z,33.94
2019-06-26T11:02:01.723Z,33.98
2019-06-26T11:03:01.835Z,33.94
2019-06-26T11:04:01.824Z,33.97
2019-06-26T11:05:01.901Z,33.91
2019-06-26T11:06:01.911Z,33.88
2019-06-26T11:07:01.969Z,33.87
2019-06-26T11:08:02.014Z,33.94
2019-06-26T11:09:02.146Z,33.93
2019-06-26T11:10:02.140Z,33.95
2019-06-26T11:11:02.167Z,33.97
2019-06-26T11:12:02.216Z,33.93
2019-06-26T11:13:02.560Z,33.93
2019-06-26T11:14:02.374Z,33.91
2019-06-26T11:15:02.370Z,33.86
2019-06-26T11:16:02.420Z,33.84
2019-06-26T11:17:02.470Z,33.88
2019-06-26T11:18:02.519Z,33.91
2019-06-26T11:19:02.576Z,33.97
2019-06-26T11:20:02.627Z,33.93
2019-06-26T11:21:02.684Z,33.94
2019-06-26T11:22:02.722Z,34.02
2019-06-26T11:23:02.773Z,33.98
2019-06-26T11:24:02.829Z,34.13
2019-06-26T11:25:02.874Z,34.10
2019-06-26T11:26:02.921Z,34.16
2019-06-26T11:27:03.072Z,34.22
2019-06-26T11:28:03.034Z,34.28
2019-06-26T11:29:03.078Z,34.28
2019-06-26T11:30:03.130Z,34.27
2019-06-26T11:31:03.182Z,34.30
2019-06-26T11:32:03.233Z,34.34
2019-06-26T11:33:03.285Z,34.25
2019-06-26T11:34:03.326Z,34.31
2019-06-26T11:35:03.378Z,34.42
2019-06-26T11:36:03.429Z,34.35
2019-06-26T11:37:04.639Z,34.37
2019-06-26T11:38:03.535Z,34.39
2019-06-26T11:39:03.590Z,34.44
2019-06-26T11:40:03.631Z,34.37
2019-06-26T11:41:03.685Z,34.49
2019-06-26T11:42:03.741Z,34.47
2019-06-26T11:43:03.832Z,34.43
2019-06-26T11:44:03.834Z,34.30
2019-06-26T11:45:03.895Z,34.28
2019-06-26T11:46:03.991Z,34.27
2019-06-26T11:47:03.989Z,34.21
2019-06-26T11:48:04.036Z,34.22
2019-06-26T11:49:04.093Z,34.28
2019-06-26T11:50:04.148Z,34.35
2019-06-26T11:51:04.193Z,34.34
2019-06-26T11:52:04.259Z,34.44
2019-06-26T11:53:04.394Z,34.44
2019-06-26T11:54:04.340Z,34.47
2019-06-26T11:55:04.402Z,34.53
2019-06-26T11:56:04.444Z,34.54
2019-06-26T11:57:04.504Z,34.58
2019-06-26T11:58:04.550Z,34.54
2019-06-26T11:59:04.601Z,34.59
2019-06-26T12:00:04.646Z,34.65
2019-06-26T12:01:04.707Z,34.56
2019-06-26T12:02:04.875Z,34.61
2019-06-26T12:03:04.804Z,34.58
2019-06-26T12:04:04.851Z,34.61
2019-06-26T12:05:04.912Z,34.72
2019-06-26T12:06:17.942Z,34.62
2019-06-26T12:07:05.011Z,34.59
2019-06-26T12:08:05.068Z,34.61
2019-06-26T12:09:05.120Z,34.59
2019-06-26T12:10:05.293Z,34.69
2019-06-26T12:11:05.202Z,34.62
2019-06-26T12:12:05.276Z,34.77
2019-06-26T12:13:05.305Z,34.78
2019-06-26T12:14:05.354Z,34.80
2019-06-26T12:15:05.412Z,34.89
2019-06-26T12:16:05.462Z,34.89
2019-06-26T12:17:05.509Z,34.82
2019-06-26T12:18:05.565Z,34.89
2019-06-26T12:19:05.726Z,34.89
2019-06-26T12:20:17.777Z,34.85
2019-06-26T12:21:05.714Z,34.89
2019-06-26T12:22:05.767Z,34.97
2019-06-26T12:23:05.816Z,34.99
2019-06-26T12:24:05.867Z,34.97
2019-06-26T12:25:05.914Z,34.94
2019-06-26T12:26:05.990Z,34.81
2019-06-26T12:27:06.022Z,34.80
2019-06-26T12:28:06.069Z,34.80
2019-06-26T12:29:06.121Z,34.80
2019-06-26T12:30:06.170Z,34.88
2019-06-26T12:31:06.224Z,34.84
2019-06-26T12:32:06.355Z,34.88
2019-06-26T12:33:06.329Z,34.97
2019-06-26T12:34:06.372Z,34.92
2019-06-26T12:35:06.450Z,34.92
2019-06-26T12:36:06.479Z,35.02
2019-06-26T12:37:06.564Z,35.06
2019-06-26T12:38:06.577Z,35.07
2019-06-26T12:39:06.627Z,35.06
2019-06-26T12:40:06.961Z,35.07
2019-06-26T12:41:06.729Z,35.11
2019-06-26T12:42:06.778Z,35.11
2019-06-26T12:43:06.834Z,35.15
2019-06-26T12:44:06.883Z,35.19
2019-06-26T12:45:06.939Z,35.10
2019-06-26T12:46:07.140Z,35.15
2019-06-26T12:47:07.055Z,35.14
2019-06-26T12:48:07.105Z,35.19
2019-06-26T12:49:07.152Z,35.10
2019-06-26T12:50:07.635Z,35.18
2019-06-26T12:51:07.240Z,35.11
2019-06-26T12:52:07.302Z,35.22
2019-06-26T12:53:07.342Z,35.22